• Join FlightAware (Why Join?)
  • Login
  • US Flag 
05:17AM EDT


 

Airport Tracker/Info


-or-


 

Live Flight TrackerFlight Track Log ✈ GJS3657 ✈ 14-Jun-2013 ✈ KALB - KORD

Flight Track Log - Related Links

Times and Time Zones

All times are in EDT time to prevent confusion due to time zone crossing. See the GJS3657 flight status page for this flight to view local times or setup timezone preferences in your user account.

Time Position Orientation Groundspeed Altitude Reporting Facility
EDT Latitude Longitude Course Direction KTS MPH feet Rate Location/Type
07:08AM 42.7736 -73.8064 336° Northwest 158 182 1,500  Level Boston Center
07:10AM 42.8461 -73.8503 336° Northwest 211 243 4,500 2,400 Climbing Boston Center
07:11AM 42.8931 -73.9167 314° West 231 266 7,300 2,580 Climbing Boston Center
07:12AM 42.9361 -73.9800 313° West 255 293 9,700 2,520 Climbing Boston Center
07:13AM 42.9953 -74.0694 312° West 277 319 12,400 2,040 Climbing Boston Center
07:14AM 43.0314 -74.1614 298° West 295 339 13,800 1,620 Climbing Boston Center
07:15AM 43.0458 -74.3094 278° West 348 400 15,700 1,860 Climbing Boston Center
07:16AM 43.0539 -74.4406 275° West 378 435 17,600 1,920 Climbing Boston Center
07:17AM 43.0639 -74.5858 275° West 390 449 19,600 2,040 Climbing Boston Center
07:18AM 43.0736 -74.7311 275° West 390 449 21,700 1,800 Climbing Boston Center
07:19AM 43.0850 -74.8764 276° West 390 449 23,200 1,500 Climbing Boston Center
07:20AM 43.0942 -75.0306 275° West 390 449 24,700 1,320 Climbing Boston Center
07:21AM 43.1031 -75.1817 275° West 395 455 25,900 1,080 Climbing Boston Center
07:22AM 43.1136 -75.3528 275° West 409 471 26,900 960 Climbing Boston Center
07:23AM 43.1239 -75.5125 275° West 419 482 27,900 960 Climbing Boston Center
07:24AM 43.1317 -75.6781 274° West 430 495 28,900 960 Climbing Boston Center
07:25AM 43.1417 -75.8436 275° West 435 501 29,900 960 Climbing Boston Center
07:26AM 43.1428 -76.0089 271° West 435 501 30,900 960 Climbing Boston Center
07:27AM 43.1292 -76.1731 264° West 440 506 31,900 840 Climbing Boston Center
07:29AM 43.0667 -76.4667 254° West 440 506 33,400 660 Climbing Toronto Center
07:29AM 43.0742 -76.5669 276° West 438 504 33,600 720 Climbing Cleveland Center
07:30AM 43.0594 -76.7497 264° West 438 504 34,500 780 Climbing Cleveland Center
07:31AM 43.0608 -76.9203 271° West 443 510 35,200 660 Climbing Cleveland Center
07:32AM 43.0639 -77.0878 271° West 443 510 35,900 360 Climbing Cleveland Center
07:33AM 43.0647 -77.2553 270° West 443 510 36,000  Climbing Cleveland Center
07:34AM 43.0653 -77.4258 270° West 443 510 36,000  Level Cleveland Center
07:35AM 43.0678 -77.5933 271° West 443 510 36,000  Level Cleveland Center
07:36AM 43.0678 -77.7611 270° West 443 510 36,000  Level Cleveland Center
07:37AM 43.0697 -77.9317 271° West 443 510 36,000  Level Cleveland Center
07:38AM 43.0714 -78.1050 271° West 448 516 36,000  Level Cleveland Center
07:39AM 43.0708 -78.2783 270° West 453 521 36,000  Level Cleveland Center
07:40AM 43.0719 -78.4517 271° West 458 527 36,000  Level Cleveland Center
07:41AM 43.0711 -78.6250 270° West 458 527 36,000  Level Cleveland Center
07:42AM 43.0486 -78.7933 260° West 458 527 36,000  Level Cleveland Center
07:43AM 43.0261 -78.9589 260° West 458 527 36,000  Level Cleveland Center
07:44AM 43.0000 -79.0167 238° Southwest 440 506 36,000  Level Toronto Center
07:45AM 43.0000 -79.1833 270° West 440 506 36,000  Level Toronto Center
07:46AM 43.0000 -79.3667 270° West 440 506 36,000  Level Toronto Center
07:47AM 43.0000 -79.5167 270° West 450 518 36,000  Level Toronto Center
07:48AM 43.0000 -79.7000 270° West 450 518 36,000  Level Toronto Center
07:49AM 43.0000 -79.8667 270° West 450 518 36,000  Level Toronto Center
07:50AM 43.0000 -80.0500 270° West 450 518 36,000  Level Toronto Center
07:51AM 43.0000 -80.2000 270° West 450 518 36,000  Level Toronto Center
07:52AM 43.0167 -80.3667 278° West 440 506 36,000  Level Toronto Center
07:53AM 43.0167 -80.5167 270° West 440 506 36,000  Level Toronto Center
07:54AM 43.0167 -80.7000 270° West 430 495 36,000  Level Toronto Center
07:55AM 43.0000 -80.8667 262° West 430 495 36,000  Level Toronto Center
07:56AM 43.0000 -81.0167 270° West 430 495 36,000  Level Toronto Center
07:57AM 43.0000 -81.1833 270° West 430 495 36,000  Level Toronto Center
07:58AM 43.0000 -81.3500 270° West 430 495 36,000  Level Toronto Center
07:59AM 43.0000 -81.5333 270° West 430 495 36,000  Level Toronto Center
08:00AM 43.0000 -81.6833 270° West 430 495 36,000  Level Toronto Center
08:01AM 43.0000 -81.8500 270° West 430 495 36,000  Level Toronto Center
08:02AM 42.9833 -82.0000 261° West 430 495 36,000  Level Toronto Center
08:03AM 42.9833 -82.1667 270° West 420 483 36,000  Level Toronto Center
08:04AM 42.9833 -82.3167 270° West 430 495 36,000  Level Toronto Center
08:05AM 42.9833 -82.4833 270° West 430 495 36,000  Level Toronto Center
08:06AM 42.9667 -82.6333 261° West 430 495 36,000  Level Toronto Center
08:06AM 42.9833 -82.7714 279° West 421 484 36,000  Level Cleveland Center
08:07AM 42.9761 -82.9328 267° West 421 484 36,000  Level Cleveland Center
08:08AM 42.9683 -83.0942 266° West 421 484 36,000  Level Cleveland Center
08:09AM 42.9586 -83.2556 265° West 421 484 36,000 -300 Level Cleveland Center
08:10AM 42.9508 -83.4114 266° West 416 479 35,500 -840 Descending Cleveland Center
08:11AM 42.9425 -83.5669 266° West 416 479 34,400 -1,080 Descending Cleveland Center
08:12AM 42.9319 -83.7367 265° West 440 506 33,400 -1,020 Descending Cleveland Center
08:13AM 42.9233 -83.8950 266° West 435 501 32,400 -720 Descending Cleveland Center
08:14AM 42.9144 -84.0561 266° West 435 501 32,000 -240 Descending Cleveland Center
08:15AM 42.9053 -84.2172 266° West 429 494 32,000  Level Cleveland Center
08:16AM 42.9008 -84.3558 268° West 429 494 32,000  Level Cleveland Center
08:17AM 42.8908 -84.4747 263° West 430 495 32,000  Level Chicago Center
08:18AM 42.8797 -84.6369 265° West 431 496 32,000  Level Chicago Center
08:19AM 42.8586 -84.8289 262° West 429 494 32,000  Level Chicago Center
08:20AM 42.8425 -84.9886 262° West 426 490 32,000  Level Chicago Center
08:21AM 42.8247 -85.1494 261° West 430 495 32,000 -300 Level Chicago Center
08:22AM 42.8069 -85.3103 261° West 429 494 31,400 -1,500 Descending Chicago Center
08:23AM 42.7900 -85.4728 262° West 433 498 28,900 -2,400 Descending Chicago Center
08:24AM 42.7628 -85.6317 257° West 431 496 26,600 -2,280 Descending Chicago Center
08:25AM 42.7350 -85.7867 256° West 423 487 24,300 -2,280 Descending Chicago Center
08:26AM 42.7078 -85.9358 256° West 409 471 22,000 -2,040 Descending Chicago Center
08:28AM 42.6764 -86.1064 256° West 390 449 20,100 -1,020 Descending Chicago Center
08:29AM 42.6497 -86.2519 256° West 392 451 20,000 -60 Descending Chicago Center
08:30AM 42.6194 -86.4008 255° West 405 466 20,000 -660 Level Chicago Center
08:31AM 42.5933 -86.5475 256° West 401 461 18,700 -1,620 Descending Chicago Center
08:32AM 42.5661 -86.6967 256° West 380 437 16,800 -1,800 Descending Chicago Center
08:33AM 42.5344 -86.8281 252° West 399 459 15,000 -1,800 Descending Chicago Center
08:34AM 42.4975 -86.9619 250° West 384 442 13,200 -1,740 Descending Chicago Center
08:35AM 42.4633 -87.0856 249° West 357 411 11,500 -1,500 Descending Chicago Center
08:36AM 42.4189 -87.2406 249° West 369 425 10,100 -720 Descending Chicago Center
08:37AM 42.3844 -87.3681 250° West 364 419 10,100 -60 Level Chicago Center
08:38AM 42.3478 -87.4972 249° West 357 411 10,000  Descending Chicago Center
08:39AM 42.2808 -87.5953 227° Southwest 365 420 10,100  Climbing Chicago Center
08:40AM 42.2042 -87.6786 219° Southwest 356 410 10,000 -720 Descending Chicago Center
08:41AM 42.1389 -87.7456 217° Southwest 300 345 8,700 -1,440 Descending Chicago Center
08:42AM 42.0911 -87.8250 231° Southwest 285 328 7,100 -1,200 Descending Chicago Center
08:42AM 42.1000 -87.8833 282° West 276 318 7,100 -120 Level Chicago TRACON
08:43AM 42.1000 -87.9833 270° West 265 305 7,000 -60 Descending Chicago TRACON
08:44AM 42.1000 -88.0667 270° West 227 261 7,000 -600 Level Chicago TRACON
08:45AM 42.0833 -88.1333 251° West 194 223 5,800 -1,320 Descending Chicago TRACON
08:46AM 42.0667 -88.2000 251° West 202 232 4,400 -1,020 Descending Chicago TRACON
08:47AM 42.0467 -88.2450 239° Southwest 216 249 4,000 -240 Descending Chicago Center
08:48AM 41.9936 -88.2764 204° Southwest 200 230 4,000  Level Chicago Center
08:49AM 41.9658 -88.2431 138° Southeast 181 208 4,000  Level Chicago Center
08:50AM 41.9692 -88.1847 86° East 167 192 4,100 -180 Climbing Chicago Center
08:51AM 41.9681 -88.1267 91° East 159 183 3,700 -660 Descending Chicago Center
08:52AM 41.9683 -88.0686 90° East 157 181 2,800 -900 Descending Chicago Center
08:53AM 41.9667 -88.0000 92° East 124 143 1,800 -840 Descending Chicago TRACON
08:54AM 41.9667 -87.9500 90° East 130 150 1,100 -720 Descending Chicago TRACON
08:56AM 41.9817 -87.9067 185° South  Level Estimated